sensor_id;sensor_type;location;lat;lon;timestamp;pressure;altitude;pressure_sealevel;temperature;humidity
28306;BME280;7516;43.570;1.448;2022-09-09T00:00:46;99628.13;;;20.95;78.41
28306;BME280;7516;43.570;1.448;2022-09-09T00:03:17;99628.22;;;21.00;78.02
28306;BME280;7516;43.570;1.448;2022-09-09T00:05:57;99627.72;;;21.03;77.55
28306;BME280;7516;43.570;1.448;2022-09-09T00:08:34;99623.72;;;21.01;77.69
28306;BME280;7516;43.570;1.448;2022-09-09T00:11:07;99629.19;;;20.94;77.54
28306;BME280;7516;43.570;1.448;2022-09-09T00:13:39;99615.94;;;20.99;77.22
28306;BME280;7516;43.570;1.448;2022-09-09T00:16:15;99621.19;;;20.94;76.57
28306;BME280;7516;43.570;1.448;2022-09-09T00:18:53;99620.78;;;21.02;76.72
28306;BME280;7516;43.570;1.448;2022-09-09T00:21:30;99629.34;;;21.04;77.14
28306;BME280;7516;43.570;1.448;2022-09-09T00:24:01;99628.31;;;21.06;77.03
28306;BME280;7516;43.570;1.448;2022-09-09T00:26:38;99625.97;;;21.09;76.63
28306;BME280;7516;43.570;1.448;2022-09-09T00:29:18;99634.19;;;21.08;78.04
28306;BME280;7516;43.570;1.448;2022-09-09T00:31:50;99640.50;;;21.01;76.82
28306;BME280;7516;43.570;1.448;2022-09-09T00:34:23;99638.16;;;20.88;76.87
28306;BME280;7516;43.570;1.448;2022-09-09T00:36:54;99637.50;;;20.81;77.07
28306;BME280;7516;43.570;1.448;2022-09-09T00:39:29;99633.69;;;20.94;77.17
28306;BME280;7516;43.570;1.448;2022-09-09T00:42:08;99632.09;;;20.93;77.07
28306;BME280;7516;43.570;1.448;2022-09-09T00:44:38;99633.47;;;20.95;76.77
28306;BME280;7516;43.570;1.448;2022-09-09T00:47:28;99622.81;;;20.95;76.03
28306;BME280;7516;43.570;1.448;2022-09-09T00:50:06;99628.38;;;20.94;76.37
28306;BME280;7516;43.570;1.448;2022-09-09T00:52:47;99623.03;;;20.94;75.77
28306;BME280;7516;43.570;1.448;2022-09-09T00:55:24;99630.78;;;20.95;75.94
28306;BME280;7516;43.570;1.448;2022-09-09T00:57:54;99636.94;;;20.96;75.51
28306;BME280;7516;43.570;1.448;2022-09-09T01:00:24;99630.78;;;20.95;75.87
28306;BME280;7516;43.570;1.448;2022-09-09T01:03:13;99631.84;;;20.94;75.96
28306;BME280;7516;43.570;1.448;2022-09-09T01:05:48;99625.47;;;20.95;75.99
28306;BME280;7516;43.570;1.448;2022-09-09T01:08:35;99634.03;;;20.97;76.32
28306;BME280;7516;43.570;1.448;2022-09-09T01:11:10;99637.16;;;20.94;76.39
28306;BME280;7516;43.570;1.448;2022-09-09T01:13:42;99641.97;;;20.92;76.41
28306;BME280;7516;43.570;1.448;2022-09-09T01:16:12;99644.63;;;20.92;76.83
28306;BME280;7516;43.570;1.448;2022-09-09T01:18:44;99641.53;;;20.84;76.58
28306;BME280;7516;43.570;1.448;2022-09-09T01:21:19;99650.34;;;20.84;76.78
28306;BME280;7516;43.570;1.448;2022-09-09T01:24:07;99646.53;;;20.80;77.38
28306;BME280;7516;43.570;1.448;2022-09-09T01:26:42;99650.63;;;20.71;78.17
28306;BME280;7516;43.570;1.448;2022-09-09T01:29:11;99649.81;;;20.71;78.33
28306;BME280;7516;43.570;1.448;2022-09-09T01:31:41;99654.75;;;20.79;78.35
28306;BME280;7516;43.570;1.448;2022-09-09T01:34:11;99665.00;;;20.70;78.30
28306;BME280;7516;43.570;1.448;2022-09-09T01:36:42;99666.28;;;20.67;76.97
28306;BME280;7516;43.570;1.448;2022-09-09T01:39:12;99671.94;;;20.71;76.45
28306;BME280;7516;43.570;1.448;2022-09-09T01:41:41;99675.56;;;20.65;76.41
28306;BME280;7516;43.570;1.448;2022-09-09T01:44:09;99675.66;;;20.70;75.92
28306;BME280;7516;43.570;1.448;2022-09-09T01:46:37;99677.84;;;20.73;75.75
28306;BME280;7516;43.570;1.448;2022-09-09T01:49:23;99687.28;;;20.64;76.03
28306;BME280;7516;43.570;1.448;2022-09-09T01:54:39;99659.09;;;20.68;76.11
28306;BME280;7516;43.570;1.448;2022-09-09T01:57:15;99650.88;;;20.70;75.43
28306;BME280;7516;43.570;1.448;2022-09-09T01:59:54;99645.13;;;20.61;75.71
28306;BME280;7516;43.570;1.448;2022-09-09T02:02:29;99645.63;;;20.58;74.57
28306;BME280;7516;43.570;1.448;2022-09-09T02:05:03;99655.50;;;20.46;74.50
28306;BME280;7516;43.570;1.448;2022-09-09T02:07:39;99658.25;;;20.51;74.62
28306;BME280;7516;43.570;1.448;2022-09-09T02:10:11;99654.53;;;20.52;74.66
28306;BME280;7516;43.570;1.448;2022-09-09T02:12:44;99683.84;;;20.52;74.70
28306;BME280;7516;43.570;1.448;2022-09-09T02:15:19;99690.25;;;20.39;72.79
28306;BME280;7516;43.570;1.448;2022-09-09T02:17:50;99691.06;;;20.28;74.18
28306;BME280;7516;43.570;1.448;2022-09-09T02:20:20;99696.97;;;20.30;73.67
28306;BME280;7516;43.570;1.448;2022-09-09T02:22:50;99692.69;;;20.29;73.88
28306;BME280;7516;43.570;1.448;2022-09-09T02:25:22;99694.69;;;20.22;74.50
28306;BME280;7516;43.570;1.448;2022-09-09T02:27:52;99705.31;;;20.22;74.56
28306;BME280;7516;43.570;1.448;2022-09-09T02:30:20;99698.31;;;20.33;74.46
28306;BME280;7516;43.570;1.448;2022-09-09T02:32:50;99703.00;;;20.37;73.69
28306;BME280;7516;43.570;1.448;2022-09-09T02:35:22;99701.13;;;20.38;73.53
28306;BME280;7516;43.570;1.448;2022-09-09T02:37:55;99689.44;;;20.39;74.16
28306;BME280;7516;43.570;1.448;2022-09-09T02:40:25;99673.13;;;20.35;73.42
28306;BME280;7516;43.570;1.448;2022-09-09T02:42:55;99668.22;;;20.32;73.17
28306;BME280;7516;43.570;1.448;2022-09-09T02:45:25;99670.13;;;20.32;73.06
28306;BME280;7516;43.570;1.448;2022-09-09T02:48:02;99661.78;;;20.28;73.31
28306;BME280;7516;43.570;1.448;2022-09-09T02:50:34;99678.72;;;20.22;74.33
28306;BME280;7516;43.570;1.448;2022-09-09T02:53:07;99677.91;;;20.21;74.76
28306;BME280;7516;43.570;1.448;2022-09-09T02:55:39;99676.84;;;20.22;74.56
28306;BME280;7516;43.570;1.448;2022-09-09T02:58:12;99674.63;;;20.31;74.23
28306;BME280;7516;43.570;1.448;2022-09-09T03:00:45;99679.38;;;20.29;73.51
28306;BME280;7516;43.570;1.448;2022-09-09T03:03:13;99686.63;;;20.34;74.51
28306;BME280;7516;43.570;1.448;2022-09-09T03:05:42;99690.94;;;20.35;74.38
28306;BME280;7516;43.570;1.448;2022-09-09T03:08:10;99699.75;;;20.35;73.74
28306;BME280;7516;43.570;1.448;2022-09-09T03:10:39;99691.28;;;20.26;74.34
28306;BME280;7516;43.570;1.448;2022-09-09T03:13:06;99697.06;;;20.23;73.75
28306;BME280;7516;43.570;1.448;2022-09-09T03:15:36;99690.16;;;20.22;73.83
28306;BME280;7516;43.570;1.448;2022-09-09T03:18:04;99690.16;;;20.22;73.64
28306;BME280;7516;43.570;1.448;2022-09-09T03:20:31;99696.63;;;20.26;73.06
28306;BME280;7516;43.570;1.448;2022-09-09T03:23:00;99689.66;;;20.25;73.33
28306;BME280;7516;43.570;1.448;2022-09-09T03:25:28;99688.06;;;20.24;74.10
28306;BME280;7516;43.570;1.448;2022-09-09T03:27:56;99691.28;;;20.26;73.16
28306;BME280;7516;43.570;1.448;2022-09-09T03:30:26;99679.25;;;20.24;72.88
28306;BME280;7516;43.570;1.448;2022-09-09T03:32:55;99684.84;;;20.22;73.43
28306;BME280;7516;43.570;1.448;2022-09-09T03:35:23;99697.34;;;20.22;72.64
28306;BME280;7516;43.570;1.448;2022-09-09T03:37:51;99692.25;;;20.20;74.18
28306;BME280;7516;43.570;1.448;2022-09-09T03:40:18;99690.63;;;20.19;73.17
28306;BME280;7516;43.570;1.448;2022-09-09T03:42:46;99692.25;;;20.20;73.65
28306;BME280;7516;43.570;1.448;2022-09-09T03:45:14;99683.78;;;20.23;73.00
28306;BME280;7516;43.570;1.448;2022-09-09T03:47:42;99688.53;;;20.21;72.51
28306;BME280;7516;43.570;1.448;2022-09-09T03:50:11;99689.81;;;20.19;73.68
28306;BME280;7516;43.570;1.448;2022-09-09T03:52:40;99677.31;;;20.19;73.93
28306;BME280;7516;43.570;1.448;2022-09-09T03:55:08;99672.00;;;20.19;74.17
28306;BME280;7516;43.570;1.448;2022-09-09T03:57:36;99691.19;;;20.21;73.30
28306;BME280;7516;43.570;1.448;2022-09-09T04:00:04;99691.44;;;20.20;74.06
28306;BME280;7516;43.570;1.448;2022-09-09T04:02:32;99693.97;;;20.15;73.51
28306;BME280;7516;43.570;1.448;2022-09-09T04:05:00;99700.22;;;20.20;73.35
28306;BME280;7516;43.570;1.448;2022-09-09T04:07:29;99696.25;;;20.23;72.78
28306;BME280;7516;43.570;1.448;2022-09-09T04:09:57;99699.19;;;20.21;73.74
28306;BME280;7516;43.570;1.448;2022-09-09T04:12:24;99697.72;;;20.14;73.58
28306;BME280;7516;43.570;1.448;2022-09-09T04:14:51;99696.69;;;20.03;73.88
28306;BME280;7516;43.570;1.448;2022-09-09T04:17:19;99697.25;;;20.05;73.09
28306;BME280;7516;43.570;1.448;2022-09-09T04:19:46;99698.28;;;20.04;74.10
28306;BME280;7516;43.570;1.448;2022-09-09T04:22:14;99696.53;;;20.10;73.97
28306;BME280;7516;43.570;1.448;2022-09-09T04:24:43;99697.34;;;20.10;73.60
28306;BME280;7516;43.570;1.448;2022-09-09T04:27:11;99705.25;;;20.05;72.99
28306;BME280;7516;43.570;1.448;2022-09-09T04:29:38;99708.13;;;20.04;74.10
28306;BME280;7516;43.570;1.448;2022-09-09T04:32:05;99697.81;;;20.07;74.07
28306;BME280;7516;43.570;1.448;2022-09-09T04:34:33;99699.66;;;20.07;73.86
28306;BME280;7516;43.570;1.448;2022-09-09T04:37:00;99701.41;;;20.01;73.64
28306;BME280;7516;43.570;1.448;2022-09-09T04:39:28;99692.84;;;19.99;73.86
28306;BME280;7516;43.570;1.448;2022-09-09T04:41:57;99687.44;;;19.94;73.18
28306;BME280;7516;43.570;1.448;2022-09-09T04:44:24;99694.13;;;19.97;73.31
28306;BME280;7516;43.570;1.448;2022-09-09T04:46:52;99698.22;;;19.87;73.71
28306;BME280;7516;43.570;1.448;2022-09-09T04:49:19;99710.78;;;19.92;73.65
28306;BME280;7516;43.570;1.448;2022-09-09T04:51:48;99709.97;;;19.91;73.74
28306;BME280;7516;43.570;1.448;2022-09-09T04:54:15;99714.94;;;19.88;74.31
28306;BME280;7516;43.570;1.448;2022-09-09T04:56:43;99713.69;;;19.90;73.54
28306;BME280;7516;43.570;1.448;2022-09-09T04:59:12;99717.06;;;19.86;74.22
28306;BME280;7516;43.570;1.448;2022-09-09T05:01:39;99712.88;;;19.90;73.86
28306;BME280;7516;43.570;1.448;2022-09-09T05:04:07;99720.16;;;19.95;74.12
28306;BME280;7516;43.570;1.448;2022-09-09T05:06:35;99728.84;;;19.90;73.98
28306;BME280;7516;43.570;1.448;2022-09-09T05:09:03;99727.56;;;19.92;73.71
28306;BME280;7516;43.570;1.448;2022-09-09T05:11:32;99742.13;;;19.90;72.88
28306;BME280;7516;43.570;1.448;2022-09-09T05:14:03;99751.03;;;19.84;73.01
28306;BME280;7516;43.570;1.448;2022-09-09T05:16:32;99755.44;;;19.90;73.23
28306;BME280;7516;43.570;1.448;2022-09-09T05:18:59;99759.94;;;19.89;72.83
28306;BME280;7516;43.570;1.448;2022-09-09T05:21:29;99745.28;;;19.87;74.52
28306;BME280;7516;43.570;1.448;2022-09-09T05:23:56;99744.78;;;19.90;74.78
28306;BME280;7516;43.570;1.448;2022-09-09T05:26:24;99763.41;;;19.90;75.68
28306;BME280;7516;43.570;1.448;2022-09-09T05:28:52;99761.25;;;19.87;75.98
28306;BME280;7516;43.570;1.448;2022-09-09T05:31:19;99762.84;;;19.88;76.40
28306;BME280;7516;43.570;1.448;2022-09-09T05:33:48;99763.44;;;19.78;76.28
28306;BME280;7516;43.570;1.448;2022-09-09T05:36:17;99769.56;;;19.79;78.07
28306;BME280;7516;43.570;1.448;2022-09-09T05:38:46;99775.91;;;19.78;78.66
28306;BME280;7516;43.570;1.448;2022-09-09T05:41:14;99774.53;;;19.75;78.86
28306;BME280;7516;43.570;1.448;2022-09-09T05:43:43;99778.91;;;19.70;79.52
28306;BME280;7516;43.570;1.448;2022-09-09T05:46:13;99783.97;;;19.71;78.85
28306;BME280;7516;43.570;1.448;2022-09-09T05:48:42;99778.56;;;19.66;80.27
28306;BME280;7516;43.570;1.448;2022-09-09T05:51:14;99784.69;;;19.67;81.42
28306;BME280;7516;43.570;1.448;2022-09-09T05:53:44;99797.63;;;19.63;81.72
28306;BME280;7516;43.570;1.448;2022-09-09T05:56:13;99793.59;;;19.61;81.20
28306;BME280;7516;43.570;1.448;2022-09-09T05:58:41;99797.84;;;19.62;81.11
28306;BME280;7516;43.570;1.448;2022-09-09T06:01:11;99797.44;;;19.46;83.23
28306;BME280;7516;43.570;1.448;2022-09-09T06:03:42;99789.06;;;19.49;83.33
28306;BME280;7516;43.570;1.448;2022-09-09T06:06:13;99800.50;;;19.50;82.97
28306;BME280;7516;43.570;1.448;2022-09-09T06:08:42;99797.72;;;19.57;83.90
28306;BME280;7516;43.570;1.448;2022-09-09T06:11:13;99793.66;;;19.54;84.30
28306;BME280;7516;43.570;1.448;2022-09-09T06:13:41;99787.53;;;19.53;83.13
28306;BME280;7516;43.570;1.448;2022-09-09T06:16:10;99791.81;;;19.54;84.33
28306;BME280;7516;43.570;1.448;2022-09-09T06:18:38;99789.97;;;19.55;83.11
28306;BME280;7516;43.570;1.448;2022-09-09T06:21:07;99792.41;;;19.57;84.59
28306;BME280;7516;43.570;1.448;2022-09-09T06:23:39;99796.09;;;19.56;85.42
28306;BME280;7516;43.570;1.448;2022-09-09T06:26:10;99795.66;;;19.59;84.27
28306;BME280;7516;43.570;1.448;2022-09-09T06:28:38;99789.38;;;19.53;83.82
28306;BME280;7516;43.570;1.448;2022-09-09T06:31:07;99794.59;;;19.48;84.65
28306;BME280;7516;43.570;1.448;2022-09-09T06:33:36;99783.16;;;19.47;84.65
28306;BME280;7516;43.570;1.448;2022-09-09T06:36:06;99785.94;;;19.52;85.11
28306;BME280;7516;43.570;1.448;2022-09-09T06:38:34;99787.31;;;19.55;85.70
28306;BME280;7516;43.570;1.448;2022-09-09T06:41:03;99791.97;;;19.60;85.90
28306;BME280;7516;43.570;1.448;2022-09-09T06:43:32;99797.63;;;19.63;87.31
28306;BME280;7516;43.570;1.448;2022-09-09T06:46:02;99797.16;;;19.66;87.01
28306;BME280;7516;43.570;1.448;2022-09-09T06:48:29;99790.22;;;19.65;87.21
28306;BME280;7516;43.570;1.448;2022-09-09T06:51:04;99789.78;;;19.68;86.68
28306;BME280;7516;43.570;1.448;2022-09-09T06:53:33;99793.38;;;19.74;87.93
28306;BME280;7516;43.570;1.448;2022-09-09T06:56:02;99797.75;;;19.80;87.26
28306;BME280;7516;43.570;1.448;2022-09-09T06:58:44;99798.69;;;19.85;86.99
28306;BME280;7516;43.570;1.448;2022-09-09T07:01:14;99795.69;;;19.82;88.10
28306;BME280;7516;43.570;1.448;2022-09-09T07:03:45;99790.84;;;19.79;87.23
28306;BME280;7516;43.570;1.448;2022-09-09T07:06:15;99798.00;;;19.90;87.73
28306;BME280;7516;43.570;1.448;2022-09-09T07:08:47;99798.34;;;19.94;87.39
28306;BME280;7516;43.570;1.448;2022-09-09T07:11:17;99804.34;;;19.89;87.27
28306;BME280;7516;43.570;1.448;2022-09-09T07:13:45;99801.03;;;19.94;87.50
28306;BME280;7516;43.570;1.448;2022-09-09T07:16:15;99797.09;;;19.96;88.62
28306;BME280;7516;43.570;1.448;2022-09-09T07:18:43;99793.25;;;19.92;88.07
28306;BME280;7516;43.570;1.448;2022-09-09T07:21:13;99795.56;;;19.88;88.38
28306;BME280;7516;43.570;1.448;2022-09-09T07:23:41;99801.25;;;19.92;87.52
28306;BME280;7516;43.570;1.448;2022-09-09T07:26:10;99796.84;;;19.86;88.68
28306;BME280;7516;43.570;1.448;2022-09-09T07:28:39;99798.47;;;19.87;88.12
28306;BME280;7516;43.570;1.448;2022-09-09T07:31:12;99798.94;;;19.84;88.95
28306;BME280;7516;43.570;1.448;2022-09-09T07:33:41;99802.63;;;19.83;88.31
28306;BME280;7516;43.570;1.448;2022-09-09T07:36:12;99802.84;;;19.81;88.31
28306;BME280;7516;43.570;1.448;2022-09-09T07:38:40;99805.72;;;19.80;88.47
28306;BME280;7516;43.570;1.448;2022-09-09T07:41:11;99801.00;;;19.82;89.00
28306;BME280;7516;43.570;1.448;2022-09-09T07:43:42;99798.69;;;19.85;88.19
28306;BME280;7516;43.570;1.448;2022-09-09T07:46:10;99795.22;;;19.85;88.59
28306;BME280;7516;43.570;1.448;2022-09-09T07:48:43;99804.25;;;19.84;89.23
28306;BME280;7516;43.570;1.448;2022-09-09T07:51:12;99809.78;;;19.82;88.89
28306;BME280;7516;43.570;1.448;2022-09-09T07:53:41;99808.53;;;19.85;88.95
28306;BME280;7516;43.570;1.448;2022-09-09T07:56:10;99809.56;;;19.84;89.14
28306;BME280;7516;43.570;1.448;2022-09-09T07:58:40;99818.47;;;19.89;88.45
28306;BME280;7516;43.570;1.448;2022-09-09T08:01:09;99805.16;;;19.89;88.47
28306;BME280;7516;43.570;1.448;2022-09-09T08:03:38;99811.88;;;19.92;89.91
28306;BME280;7516;43.570;1.448;2022-09-09T08:06:07;99808.19;;;19.93;89.83
28306;BME280;7516;43.570;1.448;2022-09-09T08:08:35;99819.88;;;19.92;89.21
28306;BME280;7516;43.570;1.448;2022-09-09T08:11:06;99821.28;;;19.95;89.01
28306;BME280;7516;43.570;1.448;2022-09-09T08:13:35;99827.41;;;19.95;88.97
28306;BME280;7516;43.570;1.448;2022-09-09T08:16:09;99820.09;;;19.90;89.87
28306;BME280;7516;43.570;1.448;2022-09-09T08:18:37;99829.59;;;19.86;89.30
28306;BME280;7516;43.570;1.448;2022-09-09T08:21:07;99835.72;;;19.87;89.34
28306;BME280;7516;43.570;1.448;2022-09-09T08:23:35;99836.75;;;19.86;88.61
28306;BME280;7516;43.570;1.448;2022-09-09T08:26:09;99838.25;;;19.82;89.18
28306;BME280;7516;43.570;1.448;2022-09-09T08:28:37;99840.91;;;19.82;89.30
28306;BME280;7516;43.570;1.448;2022-09-09T08:31:08;99839.06;;;19.82;88.80
28306;BME280;7516;43.570;1.448;2022-09-09T08:33:36;99845.78;;;19.85;88.40
28306;BME280;7516;43.570;1.448;2022-09-09T08:36:05;99842.56;;;19.95;89.42
28306;BME280;7516;43.570;1.448;2022-09-09T08:38:33;99847.06;;;19.94;88.70
28306;BME280;7516;43.570;1.448;2022-09-09T08:41:11;99848.78;;;19.88;88.46
28306;BME280;7516;43.570;1.448;2022-09-09T08:43:45;99858.50;;;19.95;88.12
28306;BME280;7516;43.570;1.448;2022-09-09T08:46:20;99868.47;;;19.87;87.59
28306;BME280;7516;43.570;1.448;2022-09-09T08:48:58;99875.97;;;19.90;87.44
28306;BME280;7516;43.570;1.448;2022-09-09T08:51:29;99874.44;;;19.83;89.06
28306;BME280;7516;43.570;1.448;2022-09-09T08:54:01;99881.03;;;19.80;89.22
28306;BME280;7516;43.570;1.448;2022-09-09T08:56:32;99891.91;;;19.79;90.04
28306;BME280;7516;43.570;1.448;2022-09-09T08:59:01;99898.75;;;19.86;90.15
28306;BME280;7516;43.570;1.448;2022-09-09T09:01:42;99910.66;;;19.84;90.99
28306;BME280;7516;43.570;1.448;2022-09-09T09:04:34;99910.75;;;19.77;91.25
28306;BME280;7516;43.570;1.448;2022-09-09T09:07:11;99918.75;;;19.77;91.26
28306;BME280;7516;43.570;1.448;2022-09-09T09:09:51;99920.75;;;19.64;91.19
28306;BME280;7516;43.570;1.448;2022-09-09T09:12:27;99930.09;;;19.54;92.37
28306;BME280;7516;43.570;1.448;2022-09-09T09:14:56;99950.91;;;19.21;95.46
28306;BME280;7516;43.570;1.448;2022-09-09T09:17:35;99949.84;;;18.42;95.27
28306;BME280;7516;43.570;1.448;2022-09-09T09:20:11;99954.31;;;17.92;97.54
28306;BME280;7516;43.570;1.448;2022-09-09T09:22:46;99964.94;;;17.41;100.00
28306;BME280;7516;43.570;1.448;2022-09-09T09:25:18;99961.09;;;17.30;100.00
28306;BME280;7516;43.570;1.448;2022-09-09T09:27:52;99979.00;;;17.35;100.00
28306;BME280;7516;43.570;1.448;2022-09-09T09:30:24;99974.28;;;17.44;100.00
28306;BME280;7516;43.570;1.448;2022-09-09T09:32:58;99979.81;;;17.36;100.00
28306;BME280;7516;43.570;1.448;2022-09-09T09:35:28;99985.09;;;17.42;100.00
28306;BME280;7516;43.570;1.448;2022-09-09T09:37:55;99979.78;;;17.49;100.00
28306;BME280;7516;43.570;1.448;2022-09-09T09:40:23;99986.91;;;17.48;100.00
28306;BME280;7516;43.570;1.448;2022-09-09T09:42:53;99998.09;;;17.57;100.00
28306;BME280;7516;43.570;1.448;2022-09-09T09:45:28;100002.16;;;17.66;100.00
28306;BME280;7516;43.570;1.448;2022-09-09T09:48:03;99995.06;;;17.47;100.00
28306;BME280;7516;43.570;1.448;2022-09-09T09:50:32;99995.69;;;17.42;100.00
28306;BME280;7516;43.570;1.448;2022-09-09T09:53:04;100003.81;;;17.54;100.00
28306;BME280;7516;43.570;1.448;2022-09-09T09:55:33;100005.47;;;17.42;100.00
28306;BME280;7516;43.570;1.448;2022-09-09T09:58:04;100003.88;;;17.34;100.00
28306;BME280;7516;43.570;1.448;2022-09-09T10:00:33;100004.06;;;17.39;100.00
28306;BME280;7516;43.570;1.448;2022-09-09T10:03:19;100002.25;;;17.40;100.00
28306;BME280;7516;43.570;1.448;2022-09-09T10:05:47;100012.16;;;17.51;100.00
28306;BME280;7516;43.570;1.448;2022-09-09T10:08:16;100014.81;;;17.64;100.00
28306;BME280;7516;43.570;1.448;2022-09-09T10:10:59;100018.84;;;17.73;100.00
28306;BME280;7516;43.570;1.448;2022-09-09T10:13:37;100017.44;;;17.71;100.00
28306;BME280;7516;43.570;1.448;2022-09-09T10:16:19;100016.44;;;17.58;100.00
28306;BME280;7516;43.570;1.448;2022-09-09T10:18:59;100026.59;;;17.75;100.00
28306;BME280;7516;43.570;1.448;2022-09-09T10:21:57;100032.09;;;17.73;100.00
28306;BME280;7516;43.570;1.448;2022-09-09T10:27:32;100029.16;;;17.30;100.00
28306;BME280;7516;43.570;1.448;2022-09-09T10:30:12;100032.66;;;17.11;100.00
28306;BME280;7516;43.570;1.448;2022-09-09T10:32:48;100036.13;;;17.11;100.00
28306;BME280;7516;43.570;1.448;2022-09-09T10:35:30;100038.38;;;17.14;100.00
28306;BME280;7516;43.570;1.448;2022-09-09T10:38:17;100034.19;;;17.51;100.00
28306;BME280;7516;43.570;1.448;2022-09-09T10:40:58;100031.16;;;17.48;100.00
28306;BME280;7516;43.570;1.448;2022-09-09T10:43:48;100018.06;;;17.66;100.00
28306;BME280;7516;43.570;1.448;2022-09-09T10:46:23;100017.34;;;17.90;100.00
28306;BME280;7516;43.570;1.448;2022-09-09T10:49:04;100014.44;;;17.98;99.97
28306;BME280;7516;43.570;1.448;2022-09-09T10:51:43;100013.56;;;18.11;100.00
28306;BME280;7516;43.570;1.448;2022-09-09T10:54:28;100010.03;;;18.17;98.36
28306;BME280;7516;43.570;1.448;2022-09-09T10:57:02;100005.56;;;18.18;98.68
28306;BME280;7516;43.570;1.448;2022-09-09T10:59:35;99995.63;;;18.38;98.69
28306;BME280;7516;43.570;1.448;2022-09-09T11:02:13;99993.13;;;18.43;98.21
28306;BME280;7516;43.570;1.448;2022-09-09T11:04:47;99980.97;;;18.60;97.96
28306;BME280;7516;43.570;1.448;2022-09-09T11:07:25;99990.88;;;18.71;98.50
28306;BME280;7516;43.570;1.448;2022-09-09T11:09:59;99987.63;;;18.69;96.69
28306;BME280;7516;43.570;1.448;2022-09-09T11:12:30;99993.56;;;18.90;97.86
28306;BME280;7516;43.570;1.448;2022-09-09T11:15:06;99989.88;;;19.09;97.50
28306;BME280;7516;43.570;1.448;2022-09-09T11:17:40;99994.84;;;19.24;97.58
28306;BME280;7516;43.570;1.448;2022-09-09T11:20:13;99987.53;;;19.37;95.74
28306;BME280;7516;43.570;1.448;2022-09-09T11:22:48;99990.66;;;19.34;92.92
28306;BME280;7516;43.570;1.448;2022-09-09T11:25:20;99992.25;;;19.35;94.14
28306;BME280;7516;43.570;1.448;2022-09-09T11:31:13;99985.78;;;19.31;92.64
28306;BME280;7516;43.570;1.448;2022-09-09T11:34:03;99982.09;;;19.50;93.21
28306;BME280;7516;43.570;1.448;2022-09-09T11:36:49;99972.69;;;19.66;91.57
28306;BME280;7516;43.570;1.448;2022-09-09T11:42:37;99964.88;;;19.83;91.39
28306;BME280;7516;43.570;1.448;2022-09-09T11:45:23;99957.78;;;19.95;91.54
28306;BME280;7516;43.570;1.448;2022-09-09T11:47:53;99966.47;;;20.02;89.99
28306;BME280;7516;43.570;1.448;2022-09-09T11:50:33;99961.94;;;20.03;90.20
28306;BME280;7516;43.570;1.448;2022-09-09T11:53:21;99959.88;;;20.16;89.04
28306;BME280;7516;43.570;1.448;2022-09-09T11:56:01;99952.88;;;20.22;89.22
28306;BME280;7516;43.570;1.448;2022-09-09T11:58:36;99956.44;;;20.27;86.96
28306;BME280;7516;43.570;1.448;2022-09-09T12:01:14;99965.69;;;20.13;87.42
28306;BME280;7516;43.570;1.448;2022-09-09T12:03:45;99966.38;;;20.20;86.10
28306;BME280;7516;43.570;1.448;2022-09-09T12:06:16;99964.78;;;20.19;86.36
28306;BME280;7516;43.570;1.448;2022-09-09T12:08:51;99972.06;;;20.24;86.98
28306;BME280;7516;43.570;1.448;2022-09-09T12:11:25;99976.25;;;20.32;86.57
28306;BME280;7516;43.570;1.448;2022-09-09T12:13:56;99975.97;;;20.40;86.76
28306;BME280;7516;43.570;1.448;2022-09-09T12:16:32;99972.69;;;20.49;86.45
28306;BME280;7516;43.570;1.448;2022-09-09T12:19:13;99981.28;;;20.63;86.59
28306;BME280;7516;43.570;1.448;2022-09-09T12:21:47;99979.78;;;20.79;85.98
28306;BME280;7516;43.570;1.448;2022-09-09T12:24:20;99977.22;;;20.95;86.29
28306;BME280;7516;43.570;1.448;2022-09-09T12:26:57;99984.88;;;21.03;85.50
28306;BME280;7516;43.570;1.448;2022-09-09T12:29:33;99982.81;;;21.17;84.53
28306;BME280;7516;43.570;1.448;2022-09-09T12:32:08;99986.38;;;21.23;84.45
28306;BME280;7516;43.570;1.448;2022-09-09T12:34:41;99997.72;;;21.30;84.00
28306;BME280;7516;43.570;1.448;2022-09-09T12:37:18;99995.16;;;21.12;82.85
28306;BME280;7516;43.570;1.448;2022-09-09T12:39:53;99994.63;;;21.10;82.32
28306;BME280;7516;43.570;1.448;2022-09-09T12:42:22;99990.56;;;21.07;83.27
28306;BME280;7516;43.570;1.448;2022-09-09T12:44:56;99990.69;;;21.24;84.02
28306;BME280;7516;43.570;1.448;2022-09-09T12:47:29;99995.88;;;21.30;83.44
28306;BME280;7516;43.570;1.448;2022-09-09T12:49:59;99987.84;;;21.42;82.95
28306;BME280;7516;43.570;1.448;2022-09-09T12:52:30;99995.13;;;21.47;82.95
28306;BME280;7516;43.570;1.448;2022-09-09T12:55:02;99990.00;;;21.57;82.70
28306;BME280;7516;43.570;1.448;2022-09-09T12:57:34;99990.06;;;21.73;83.07
28306;BME280;7516;43.570;1.448;2022-09-09T13:00:12;99988.25;;;21.91;82.70
28306;BME280;7516;43.570;1.448;2022-09-09T13:02:49;99988.16;;;21.97;82.31
28306;BME280;7516;43.570;1.448;2022-09-09T13:05:20;99991.00;;;22.07;81.85
28306;BME280;7516;43.570;1.448;2022-09-09T13:07:48;99982.19;;;22.07;81.81
28306;BME280;7516;43.570;1.448;2022-09-09T13:10:21;99978.44;;;22.08;81.19
28306;BME280;7516;43.570;1.448;2022-09-09T13:12:52;99979.84;;;22.27;80.56
28306;BME280;7516;43.570;1.448;2022-09-09T13:15:24;99975.88;;;22.46;79.11
28306;BME280;7516;43.570;1.448;2022-09-09T13:17:55;99970.06;;;22.49;76.45
28306;BME280;7516;43.570;1.448;2022-09-09T13:20:24;99967.06;;;22.63;78.90
28306;BME280;7516;43.570;1.448;2022-09-09T13:22:53;99964.94;;;22.65;76.77
28306;BME280;7516;43.570;1.448;2022-09-09T13:25:24;99955.41;;;22.69;76.30
28306;BME280;7516;43.570;1.448;2022-09-09T13:27:55;99956.22;;;22.86;77.13
28306;BME280;7516;43.570;1.448;2022-09-09T13:30:27;99955.28;;;22.97;76.05
28306;BME280;7516;43.570;1.448;2022-09-09T13:33:18;99947.53;;;23.17;76.69
28306;BME280;7516;43.570;1.448;2022-09-09T13:35:50;99946.03;;;23.26;74.69
28306;BME280;7516;43.570;1.448;2022-09-09T13:38:19;99939.78;;;23.43;75.70
28306;BME280;7516;43.570;1.448;2022-09-09T13:40:55;99942.78;;;23.46;73.77
28306;BME280;7516;43.570;1.448;2022-09-09T13:43:24;99939.94;;;23.53;74.84
28306;BME280;7516;43.570;1.448;2022-09-09T13:46:06;99940.41;;;23.72;73.32
28306;BME280;7516;43.570;1.448;2022-09-09T13:48:54;99936.63;;;23.68;73.75